createdAt,value
2019-02-15T00:00:45.049Z,18.53
2019-02-15T00:03:13.735Z,13.45
2019-02-15T00:05:42.508Z,10.23
2019-02-15T00:08:11.261Z,19.20
2019-02-15T00:10:40.095Z,16.23
2019-02-15T00:13:13.630Z,15.27
2019-02-15T00:15:39.063Z,11.90
2019-02-15T00:18:21.314Z,13.03
2019-02-15T00:20:51.688Z,16.27
2019-02-15T00:23:20.436Z,18.93
2019-02-15T00:25:49.181Z,16.90
2019-02-15T00:28:17.976Z,15.07
2019-02-15T00:30:46.820Z,20.50
2019-02-15T00:33:15.438Z,16.27
2019-02-15T00:35:44.157Z,18.87
2019-02-15T00:38:12.996Z,17.57
2019-02-15T00:40:41.746Z,17.85
2019-02-15T00:43:10.431Z,19.23
2019-02-15T00:45:40.749Z,13.13
2019-02-15T00:48:13.932Z,12.93
2019-02-15T00:50:44.377Z,19.07
2019-02-15T00:53:26.671Z,22.50
2019-02-15T00:56:02.923Z,15.87
2019-02-15T00:58:49.650Z,15.53
2019-02-15T01:01:26.487Z,18.57
2019-02-15T01:03:56.766Z,12.97
2019-02-15T01:06:43.062Z,13.63
2019-02-15T01:09:17.998Z,16.60
2019-02-15T01:11:48.305Z,19.57
2019-02-15T01:14:17.161Z,17.37
2019-02-15T01:16:45.904Z,17.50
2019-02-15T01:19:14.525Z,21.27
2019-02-15T01:21:43.220Z,20.80
2019-02-15T01:24:11.897Z,21.73
2019-02-15T01:26:42.284Z,19.73
2019-02-15T01:29:12.726Z,15.23
2019-02-15T01:34:31.131Z,15.33
2019-02-15T01:37:16.415Z,20.53
2019-02-15T01:39:46.696Z,18.10
2019-02-15T01:42:22.952Z,18.50
2019-02-15T01:44:53.289Z,16.97
2019-02-15T01:47:23.133Z,16.77
2019-02-15T01:49:52.659Z,17.33
2019-02-15T01:52:21.444Z,12.65
2019-02-15T01:54:50.007Z,14.47
2019-02-15T01:57:18.906Z,19.98
2019-02-15T01:59:47.576Z,16.70
2019-02-15T02:02:16.416Z,18.60
2019-02-15T02:04:45.467Z,18.73
2019-02-15T02:07:14.198Z,16.73
2019-02-15T02:09:42.850Z,15.60
2019-02-15T02:12:11.638Z,18.48
2019-02-15T02:14:40.354Z,13.87
2019-02-15T02:17:09.093Z,22.47
2019-02-15T02:19:37.925Z,14.23
2019-02-15T02:22:06.646Z,15.47
2019-02-15T02:24:35.621Z,17.43
2019-02-15T02:27:04.973Z,19.53
2019-02-15T02:29:33.600Z,16.00
2019-02-15T02:32:02.336Z,15.20
2019-02-15T02:34:31.017Z,16.63
2019-02-15T02:36:59.595Z,16.60
2019-02-15T02:39:28.359Z,15.23
2019-02-15T02:41:57.013Z,14.75
2019-02-15T02:44:25.755Z,15.30
2019-02-15T02:46:54.616Z,18.43
2019-02-15T02:49:23.279Z,14.50
2019-02-15T02:51:51.986Z,20.00
2019-02-15T02:54:20.765Z,16.30
2019-02-15T02:56:49.464Z,21.10
2019-02-15T02:59:18.305Z,17.10
2019-02-15T03:01:47.072Z,17.35
2019-02-15T03:04:15.820Z,20.30
2019-02-15T03:06:44.564Z,26.03
2019-02-15T03:09:13.216Z,18.20
2019-02-15T03:11:41.914Z,16.63
2019-02-15T03:14:11.779Z,20.60
2019-02-15T03:16:40.985Z,20.72
2019-02-15T03:19:09.734Z,23.17
2019-02-15T03:21:38.421Z,18.03
2019-02-15T03:24:07.066Z,18.23
2019-02-15T03:26:35.771Z,15.20
2019-02-15T03:29:05.009Z,16.65
2019-02-15T03:31:33.817Z,15.60
2019-02-15T03:34:02.540Z,16.53
2019-02-15T03:36:32.807Z,15.30
2019-02-15T03:39:03.178Z,14.47
2019-02-15T03:41:33.471Z,20.67
2019-02-15T03:44:02.252Z,15.23
2019-02-15T03:46:31.065Z,17.47
2019-02-15T03:48:59.667Z,19.60
2019-02-15T03:51:28.429Z,18.87
2019-02-15T03:53:57.116Z,17.50
2019-02-15T03:56:25.790Z,18.40
2019-02-15T03:58:54.536Z,17.13
2019-02-15T04:01:23.387Z,16.50
2019-02-15T04:03:52.211Z,17.40
2019-02-15T04:06:20.949Z,16.20
2019-02-15T04:08:49.721Z,20.57
2019-02-15T04:11:18.537Z,20.23
2019-02-15T04:13:47.174Z,15.77
2019-02-15T04:16:15.822Z,14.63
2019-02-15T04:18:44.539Z,26.80
2019-02-15T04:21:13.225Z,17.03
2019-02-15T04:23:42.564Z,15.50
2019-02-15T04:26:11.265Z,18.43
2019-02-15T04:28:40.021Z,13.17
2019-02-15T04:31:08.816Z,19.10
2019-02-15T04:33:37.756Z,19.73
2019-02-15T04:36:06.565Z,14.77
2019-02-15T04:38:35.260Z,17.60
2019-02-15T04:41:05.030Z,16.57
2019-02-15T04:43:33.614Z,18.27
2019-02-15T04:46:02.387Z,16.07
2019-02-15T04:48:31.172Z,15.37
2019-02-15T04:50:59.948Z,17.23
2019-02-15T04:53:28.675Z,15.70
2019-02-15T04:55:57.469Z,14.70
2019-02-15T04:58:26.389Z,17.90
2019-02-15T05:00:55.159Z,14.80
2019-02-15T05:03:23.988Z,17.73
2019-02-15T05:05:52.779Z,14.70
2019-02-15T05:08:21.634Z,20.90
2019-02-15T05:10:50.377Z,15.27
2019-02-15T05:13:19.287Z,23.05
2019-02-15T05:15:47.963Z,23.07
2019-02-15T05:18:16.688Z,31.12
2019-02-15T05:20:51.904Z,25.50
2019-02-15T05:23:20.468Z,18.87
2019-02-15T05:25:49.269Z,23.30
2019-02-15T05:28:18.086Z,18.00
2019-02-15T05:30:46.721Z,17.43
2019-02-15T05:33:15.649Z,19.97
2019-02-15T05:35:44.290Z,16.60
2019-02-15T05:38:12.928Z,13.20
2019-02-15T05:40:41.713Z,14.80
2019-02-15T05:43:10.527Z,12.50
2019-02-15T05:45:39.186Z,23.30
2019-02-15T05:48:07.935Z,16.97
2019-02-15T05:50:36.673Z,18.62
2019-02-15T05:53:05.345Z,20.30
2019-02-15T05:55:33.959Z,20.72
2019-02-15T05:58:02.528Z,21.50
2019-02-15T06:00:43.622Z,20.85
2019-02-15T06:03:13.791Z,16.33
2019-02-15T06:05:42.785Z,16.33
2019-02-15T06:08:11.532Z,17.90
2019-02-15T06:10:40.342Z,16.80
2019-02-15T06:13:08.921Z,12.13
2019-02-15T06:15:37.449Z,14.67
2019-02-15T06:18:06.187Z,16.50
2019-02-15T06:20:34.840Z,13.45
2019-02-15T06:23:03.662Z,19.82
2019-02-15T06:25:32.331Z,17.87
2019-02-15T06:28:01.011Z,18.90
2019-02-15T06:30:29.634Z,21.00
2019-02-15T06:32:58.321Z,15.00
2019-02-15T06:35:26.997Z,19.95
2019-02-15T06:37:55.769Z,19.70
2019-02-15T06:40:24.666Z,19.07
2019-02-15T06:42:53.328Z,14.20
2019-02-15T06:45:25.080Z,14.20
2019-02-15T06:47:52.457Z,18.70
2019-02-15T06:50:21.194Z,18.47
2019-02-15T06:52:49.972Z,15.25
2019-02-15T06:55:18.663Z,14.67
2019-02-15T06:57:47.431Z,12.53
2019-02-15T07:00:34.174Z,12.58
2019-02-15T07:03:07.251Z,13.87
2019-02-15T07:05:35.894Z,10.40
2019-02-15T07:08:05.027Z,15.30
2019-02-15T07:10:33.771Z,9.57
2019-02-15T07:13:02.478Z,12.30
2019-02-15T07:15:33.856Z,14.07
2019-02-15T07:18:01.735Z,12.10
2019-02-15T07:20:30.434Z,19.70
2019-02-15T07:22:59.209Z,12.37
2019-02-15T07:25:27.981Z,17.07
2019-02-15T07:27:56.573Z,25.37
2019-02-15T07:30:25.476Z,16.57
2019-02-15T07:32:54.169Z,9.47
2019-02-15T07:35:22.791Z,10.63
2019-02-15T07:37:51.393Z,7.87
2019-02-15T07:40:20.097Z,8.15
2019-02-15T07:42:48.794Z,8.17
2019-02-15T07:45:17.973Z,7.23
2019-02-15T07:47:46.907Z,7.93
2019-02-15T07:50:15.657Z,8.45
2019-02-15T07:52:44.278Z,11.53
2019-02-15T07:55:12.832Z,9.43
2019-02-15T07:57:41.453Z,5.67
2019-02-15T08:00:13.674Z,11.20
2019-02-15T08:02:42.332Z,9.27
2019-02-15T08:05:12.329Z,8.03
2019-02-15T08:07:40.962Z,7.60
2019-02-15T08:10:12.553Z,9.03
2019-02-15T08:12:41.259Z,9.53
2019-02-15T08:15:11.320Z,12.27
2019-02-15T08:17:39.981Z,9.67
2019-02-15T08:20:14.817Z,7.70
2019-02-15T08:22:43.603Z,11.00
2019-02-15T08:25:12.284Z,8.13
2019-02-15T08:27:40.910Z,7.73
2019-02-15T08:30:12.706Z,8.23
2019-02-15T08:32:41.433Z,8.70
2019-02-15T08:35:11.693Z,8.08
2019-02-15T08:37:57.158Z,8.00
2019-02-15T08:40:28.021Z,8.80
2019-02-15T08:43:08.514Z,8.20
2019-02-15T08:45:42.529Z,9.38
2019-02-15T08:48:15.810Z,9.63
2019-02-15T08:51:00.287Z,9.23
2019-02-15T08:53:47.746Z,8.93
2019-02-15T08:56:31.342Z,7.97
2019-02-15T08:59:15.576Z,6.77
2019-02-15T09:01:57.908Z,8.93
2019-02-15T09:04:42.086Z,11.13
2019-02-15T09:07:18.940Z,7.60
2019-02-15T09:10:01.180Z,12.50
2019-02-15T09:12:45.988Z,8.50
2019-02-15T09:15:18.413Z,9.13
2019-02-15T09:17:48.089Z,14.63
2019-02-15T09:20:16.959Z,8.38
2019-02-15T09:22:45.657Z,11.80
2019-02-15T09:25:14.379Z,9.80
2019-02-15T09:27:50.745Z,9.43
2019-02-15T09:30:19.621Z,11.35
2019-02-15T09:32:48.446Z,8.60
2019-02-15T09:35:17.275Z,8.93
2019-02-15T09:37:46.055Z,12.70
2019-02-15T09:40:14.940Z,8.20
2019-02-15T09:42:43.644Z,8.37
2019-02-15T09:45:13.092Z,11.23
2019-02-15T09:47:41.903Z,10.15
2019-02-15T09:50:12.239Z,7.58
2019-02-15T09:52:41.641Z,6.30
2019-02-15T09:55:10.458Z,8.20
2019-02-15T09:57:39.106Z,6.53
2019-02-15T10:00:10.318Z,6.70
2019-02-15T10:02:39.168Z,7.30
2019-02-15T10:05:09.407Z,6.70
2019-02-15T10:07:38.074Z,7.67
2019-02-15T10:10:11.114Z,6.63
2019-02-15T10:12:39.821Z,9.73
2019-02-15T10:15:11.512Z,7.90
2019-02-15T10:17:40.319Z,8.30
2019-02-15T10:20:10.397Z,6.90
2019-02-15T10:22:39.174Z,9.77
2019-02-15T10:25:09.621Z,9.47
2019-02-15T10:27:38.617Z,5.93
2019-02-15T10:30:10.242Z,7.40
2019-02-15T10:32:39.018Z,7.20
2019-02-15T10:35:11.872Z,5.47
2019-02-15T10:37:40.923Z,6.07
2019-02-15T10:40:11.657Z,5.17
2019-02-15T10:42:40.521Z,7.37
2019-02-15T10:45:15.581Z,8.65
2019-02-15T10:47:44.396Z,5.77
2019-02-15T10:50:13.465Z,4.27
2019-02-15T10:52:42.407Z,7.03
2019-02-15T10:55:11.133Z,6.60
2019-02-15T10:57:39.831Z,6.90
2019-02-15T11:00:21.852Z,6.90
2019-02-15T11:02:50.660Z,5.60
2019-02-15T11:05:20.957Z,6.15
2019-02-15T11:07:49.644Z,6.70
2019-02-15T11:10:18.240Z,4.60
2019-02-15T11:12:46.978Z,5.60
2019-02-15T11:15:17.816Z,5.70
2019-02-15T11:17:46.558Z,5.40
2019-02-15T11:20:18.084Z,7.50
2019-02-15T11:22:46.793Z,6.90
2019-02-15T11:25:15.586Z,4.25
2019-02-15T11:27:44.333Z,5.80
2019-02-15T11:30:16.214Z,5.10
2019-02-15T11:32:44.825Z,4.60
2019-02-15T11:35:14.778Z,5.67
2019-02-15T11:37:43.507Z,5.80
2019-02-15T11:40:14.982Z,6.10
2019-02-15T11:42:43.968Z,6.40
2019-02-15T11:45:15.068Z,4.95
2019-02-15T11:47:43.797Z,6.70
2019-02-15T11:50:15.177Z,7.20
2019-02-15T11:52:43.922Z,7.17
2019-02-15T11:55:12.719Z,5.67
2019-02-15T11:57:41.417Z,4.63
2019-02-15T12:00:18.470Z,6.07
2019-02-15T12:02:47.214Z,5.97
2019-02-15T12:05:15.964Z,5.07
2019-02-15T12:07:44.670Z,7.87
2019-02-15T12:10:14.056Z,6.50
2019-02-15T12:12:44.401Z,7.90
2019-02-15T12:15:13.021Z,4.17
2019-02-15T12:17:41.759Z,6.00
2019-02-15T12:20:16.493Z,6.43
2019-02-15T12:22:45.232Z,6.53
2019-02-15T12:25:13.866Z,4.30
2019-02-15T12:27:42.544Z,7.33
2019-02-15T12:30:13.304Z,6.05
2019-02-15T12:32:42.034Z,3.70
2019-02-15T12:35:15.520Z,7.97
2019-02-15T12:37:44.215Z,4.58
2019-02-15T12:40:14.164Z,4.00
2019-02-15T12:42:42.927Z,3.70
2019-02-15T12:45:14.726Z,3.73
2019-02-15T12:47:43.348Z,4.60
2019-02-15T12:50:15.002Z,4.63
2019-02-15T12:52:43.716Z,3.43
2019-02-15T12:55:12.511Z,5.93
2019-02-15T12:57:41.278Z,5.72
2019-02-15T13:00:15.496Z,4.80
2019-02-15T13:02:44.323Z,3.20
2019-02-15T13:05:14.562Z,3.10
2019-02-15T13:07:43.275Z,4.13
2019-02-15T13:10:16.617Z,4.15
2019-02-15T13:12:45.452Z,5.20
2019-02-15T13:15:14.243Z,2.77
2019-02-15T13:17:42.912Z,4.10
2019-02-15T13:20:12.575Z,4.72
2019-02-15T13:22:41.267Z,5.77
2019-02-15T13:25:09.983Z,3.20
2019-02-15T13:27:38.661Z,6.10
2019-02-15T13:30:10.240Z,3.13
2019-02-15T13:32:39.073Z,6.17
2019-02-15T13:35:11.037Z,5.00
2019-02-15T13:37:39.717Z,8.33
2019-02-15T13:40:09.989Z,9.13
2019-02-15T13:42:38.751Z,5.50
2019-02-15T13:45:10.023Z,3.50
2019-02-15T13:47:38.723Z,2.70
2019-02-15T13:50:13.222Z,9.70
2019-02-15T13:52:41.878Z,3.30
2019-02-15T13:55:11.855Z,3.67
2019-02-15T13:57:40.579Z,3.37
2019-02-15T14:00:14.034Z,2.52
2019-02-15T14:02:42.672Z,6.40
2019-02-15T14:05:13.191Z,2.97
2019-02-15T14:07:41.966Z,3.77
2019-02-15T14:10:13.068Z,3.25
2019-02-15T14:12:47.539Z,6.70
2019-02-15T14:15:16.280Z,4.00
2019-02-15T14:17:48.229Z,4.70
2019-02-15T14:20:15.237Z,4.93
2019-02-15T14:22:43.970Z,3.70
2019-02-15T14:25:14.034Z,3.58
2019-02-15T14:27:42.720Z,4.87
2019-02-15T14:30:14.285Z,3.33
2019-02-15T14:32:42.955Z,9.00
2019-02-15T14:35:14.388Z,6.43
2019-02-15T14:37:43.011Z,4.60
2019-02-15T14:40:14.356Z,5.83
2019-02-15T14:42:43.127Z,5.20
2019-02-15T14:45:15.168Z,4.20
2019-02-15T14:47:43.860Z,5.53
2019-02-15T14:50:12.601Z,4.47
2019-02-15T14:52:41.451Z,9.27
2019-02-15T14:55:11.444Z,6.15
2019-02-15T14:57:41.198Z,4.17
2019-02-15T15:00:12.712Z,6.07
2019-02-15T15:02:41.435Z,7.50
2019-02-15T15:05:12.852Z,8.53
2019-02-15T15:07:41.639Z,13.07
2019-02-15T15:10:11.821Z,5.60
2019-02-15T15:12:40.598Z,3.60
2019-02-15T15:15:12.237Z,6.37
2019-02-15T15:17:40.983Z,4.43
2019-02-15T15:20:13.707Z,3.62
2019-02-15T15:22:42.474Z,5.60
2019-02-15T15:25:13.925Z,4.80
2019-02-15T15:27:42.568Z,5.30
2019-02-15T15:30:15.984Z,4.23
2019-02-15T15:32:44.645Z,10.70
2019-02-15T15:35:13.480Z,5.47
2019-02-15T15:37:42.259Z,7.63
2019-02-15T15:40:16.211Z,7.70
2019-02-15T15:42:44.937Z,3.10
2019-02-15T15:45:13.775Z,8.08
2019-02-15T15:47:42.444Z,4.60
2019-02-15T15:50:12.994Z,5.03
2019-02-15T15:52:41.786Z,4.90
2019-02-15T15:55:12.156Z,7.50
2019-02-15T15:57:40.899Z,4.47
2019-02-15T16:00:12.455Z,5.20
2019-02-15T16:02:41.207Z,4.50
2019-02-15T16:05:14.837Z,4.97
2019-02-15T16:07:44.647Z,4.80
2019-02-15T16:10:17.097Z,5.80
2019-02-15T16:12:45.792Z,3.73
2019-02-15T16:15:15.157Z,4.50
2019-02-15T16:17:44.030Z,5.53
2019-02-15T16:20:14.249Z,4.53
2019-02-15T16:22:43.967Z,6.77
2019-02-15T16:25:12.807Z,2.90
2019-02-15T16:27:43.528Z,5.53
2019-02-15T16:30:14.432Z,4.08
2019-02-15T16:32:43.209Z,3.27
2019-02-15T16:35:11.898Z,4.90
2019-02-15T16:37:40.661Z,9.07
2019-02-15T16:40:12.274Z,3.65
2019-02-15T16:42:41.088Z,4.67
2019-02-15T16:45:12.444Z,8.50
2019-02-15T16:47:41.186Z,4.97
2019-02-15T16:50:09.975Z,11.80
2019-02-15T16:52:38.734Z,9.50
2019-02-15T16:55:12.699Z,7.90
2019-02-15T16:57:39.891Z,8.43
2019-02-15T17:00:11.838Z,6.37
2019-02-15T17:02:40.574Z,5.13
2019-02-15T17:05:09.362Z,9.30
2019-02-15T17:07:38.022Z,6.00
2019-02-15T17:10:09.113Z,6.83
2019-02-15T17:12:37.923Z,5.20
2019-02-15T17:15:11.928Z,7.33
2019-02-15T17:17:40.572Z,4.10
2019-02-15T17:20:12.039Z,5.00
2019-02-15T17:22:40.656Z,4.83
2019-02-15T17:25:13.558Z,5.30
2019-02-15T17:27:42.260Z,9.40
2019-02-15T17:30:12.442Z,6.08
2019-02-15T17:32:41.440Z,5.30
2019-02-15T17:35:12.068Z,7.08
2019-02-15T17:37:40.803Z,6.40
2019-02-15T17:40:12.119Z,7.03
2019-02-15T17:42:40.892Z,8.03
2019-02-15T17:45:12.104Z,6.47
2019-02-15T17:47:40.854Z,5.85
2019-02-15T17:50:12.142Z,7.40
2019-02-15T17:52:41.432Z,5.28
2019-02-15T17:55:11.910Z,6.67
2019-02-15T17:57:52.391Z,5.47
2019-02-15T18:00:23.078Z,6.93
2019-02-15T18:02:51.708Z,5.50
2019-02-15T18:05:20.346Z,6.40
2019-02-15T18:07:50.195Z,5.20
2019-02-15T18:10:18.881Z,7.62
2019-02-15T18:12:47.496Z,7.20
2019-02-15T18:15:16.145Z,7.63
2019-02-15T18:17:44.903Z,6.40
2019-02-15T18:20:13.741Z,4.92
2019-02-15T18:22:42.464Z,6.22
2019-02-15T18:25:11.094Z,5.83
2019-02-15T18:27:39.807Z,12.10
2019-02-15T18:30:14.454Z,9.95
2019-02-15T18:32:43.226Z,7.40
2019-02-15T18:35:12.912Z,7.95
2019-02-15T18:37:41.494Z,8.25
2019-02-15T18:40:14.414Z,9.95
2019-02-15T18:42:43.030Z,8.37
2019-02-15T18:45:14.540Z,12.10
2019-02-15T18:47:43.271Z,10.13
2019-02-15T18:50:12.022Z,6.37
2019-02-15T18:52:41.513Z,8.13
2019-02-15T18:55:11.567Z,5.60
2019-02-15T18:57:41.833Z,8.93
2019-02-15T19:00:15.594Z,10.63
2019-02-15T19:02:47.184Z,7.47
2019-02-15T19:05:16.404Z,5.10
2019-02-15T19:07:45.738Z,7.13
2019-02-15T19:10:23.147Z,6.53
2019-02-15T19:12:52.193Z,6.83
2019-02-15T19:15:20.972Z,7.67
2019-02-15T19:17:49.702Z,6.57
2019-02-15T19:20:18.635Z,9.30
2019-02-15T19:22:57.837Z,8.57
2019-02-15T19:25:27.427Z,7.53
2019-02-15T19:27:56.133Z,6.37
2019-02-15T19:30:30.783Z,9.30
2019-02-15T19:33:00.650Z,8.17
2019-02-15T19:35:29.627Z,9.50
2019-02-15T19:37:58.614Z,10.97
2019-02-15T19:40:27.453Z,8.77
2019-02-15T19:43:02.112Z,10.70
2019-02-15T19:45:30.835Z,9.50
2019-02-15T19:48:00.407Z,10.90
2019-02-15T19:50:29.328Z,7.93
2019-02-15T19:52:57.968Z,9.30
2019-02-15T19:55:26.781Z,11.33
2019-02-15T19:57:55.324Z,10.37
2019-02-15T20:00:24.115Z,13.10
2019-02-15T20:02:54.153Z,18.23
2019-02-15T20:05:23.867Z,13.20
2019-02-15T20:07:52.979Z,10.80
2019-02-15T20:10:24.831Z,7.33
2019-02-15T20:12:54.093Z,11.67
2019-02-15T20:15:22.892Z,8.63
2019-02-15T20:17:52.307Z,12.15
2019-02-15T20:20:22.032Z,11.73
2019-02-15T20:22:52.743Z,12.78
2019-02-15T20:25:23.320Z,11.80
2019-02-15T20:27:52.823Z,11.05
2019-02-15T20:30:31.551Z,14.00
2019-02-15T20:33:01.356Z,10.17
2019-02-15T20:35:30.045Z,10.53
2019-02-15T20:37:59.855Z,12.53
2019-02-15T20:40:31.092Z,11.83
2019-02-15T20:43:00.007Z,11.03
2019-02-15T20:45:30.571Z,8.67
2019-02-15T20:48:12.034Z,11.03
2019-02-15T20:50:38.352Z,11.13
2019-02-15T20:53:07.448Z,12.23
2019-02-15T20:55:36.246Z,11.63
2019-02-15T20:58:05.045Z,15.03
2019-02-15T21:00:33.930Z,14.93
2019-02-15T21:03:02.776Z,13.40
2019-02-15T21:05:31.636Z,13.30
2019-02-15T21:08:00.751Z,18.20
2019-02-15T21:10:29.826Z,11.80
2019-02-15T21:12:58.840Z,19.17
2019-02-15T21:15:27.661Z,14.43
2019-02-15T21:17:56.362Z,17.10
2019-02-15T21:20:25.261Z,17.17
2019-02-15T21:22:54.137Z,13.73
2019-02-15T21:25:22.884Z,21.25
2019-02-15T21:27:51.552Z,19.67
2019-02-15T21:30:20.809Z,18.50
2019-02-15T21:32:49.551Z,21.37
2019-02-15T21:35:18.190Z,19.75
2019-02-15T21:37:47.471Z,15.10
2019-02-15T21:40:17.916Z,19.10
2019-02-15T21:42:47.346Z,24.90
2019-02-15T21:45:16.952Z,16.70
2019-02-15T21:47:46.478Z,15.10
2019-02-15T21:50:17.600Z,19.93
2019-02-15T21:52:46.653Z,16.10
2019-02-15T21:55:19.789Z,23.73
2019-02-15T21:57:48.409Z,21.00
2019-02-15T22:00:20.260Z,17.60
2019-02-15T22:02:49.007Z,21.00
2019-02-15T22:05:17.975Z,20.05
2019-02-15T22:07:46.674Z,18.10
2019-02-15T22:10:15.456Z,18.37
2019-02-15T22:12:44.206Z,17.83
2019-02-15T22:15:16.131Z,19.98
2019-02-15T22:17:44.884Z,21.60
2019-02-15T22:20:26.372Z,23.40
2019-02-15T22:22:48.350Z,22.53
2019-02-15T22:25:17.042Z,19.90
2019-02-15T22:27:45.682Z,19.45
2019-02-15T22:30:17.189Z,28.62
2019-02-15T22:32:45.862Z,23.73
2019-02-15T22:35:14.516Z,28.65
2019-02-15T22:37:43.181Z,19.50
2019-02-15T22:40:29.768Z,23.20
2019-02-15T22:43:04.558Z,25.88
2019-02-15T22:45:33.343Z,23.77
2019-02-15T22:48:02.121Z,24.20
2019-02-15T22:50:36.096Z,20.50
2019-02-15T22:53:01.425Z,17.63
2019-02-15T22:55:30.568Z,22.63
2019-02-15T22:57:59.362Z,23.00
2019-02-15T23:00:50.458Z,31.40
2019-02-15T23:03:24.847Z,32.50
2019-02-15T23:05:53.467Z,34.63
2019-02-15T23:08:22.291Z,25.10
2019-02-15T23:10:51.148Z,20.10
2019-02-15T23:13:19.932Z,21.27
2019-02-15T23:15:48.794Z,23.10
2019-02-15T23:18:19.021Z,17.80
2019-02-15T23:20:48.189Z,18.60
2019-02-15T23:23:17.072Z,18.43
2019-02-15T23:25:45.820Z,22.50
2019-02-15T23:28:14.469Z,20.27
2019-02-15T23:30:43.223Z,20.07
2019-02-15T23:33:11.932Z,19.67
2019-02-15T23:35:40.632Z,18.63
2019-02-15T23:38:09.429Z,28.67
2019-02-15T23:40:38.116Z,29.67
2019-02-15T23:43:06.885Z,32.13
2019-02-15T23:45:35.780Z,28.30
2019-02-15T23:48:04.986Z,31.73
2019-02-15T23:50:33.812Z,24.40
2019-02-15T23:53:02.588Z,27.10
2019-02-15T23:55:31.461Z,34.07
2019-02-15T23:58:00.150Z,25.55
